Time;durP1;ratioP1;P1;durP2;ratioP2;P2;SDS_P1;SDS_P2;PMS_P1;PMS_P2;Temp;Humidity;BMP_temperature;BMP_pressure;BME280_temperature;BME280_humidity;BME280_pressure;Samples;Min_cycle;Max_cycle;Signal;HPM_P1;HPM_P2
2020/12/10 16:32:45;;;;;;;;;;;;;;;16.37;77.42;99082.34;5055810;28;20270;-74
2020/12/10 16:35:11;;;;;;;;;;;;;;;16.37;77.64;99087.69;5055932;28;20586;-75
2020/12/10 16:37:37;;;;;;;;;;;;;;;16.16;77.69;99099.09;5043782;28;19960;-74
2020/12/10 16:40:04;;;;;;;;;;;;;;;16.13;77.90;99098.31;5056258;28;20122;-74
2020/12/10 16:42:31;;;;;;;;;;;;;;;16.17;77.64;99090.09;5041819;28;19932;-74
2020/12/10 16:44:57;;;;;;;;;;;;;;;16.23;77.92;99087.84;5053324;28;19952;-74
2020/12/10 16:47:24;;;;;;;;;;;;;;;16.16;77.18;99091.91;5057771;28;19924;-77
2020/12/10 16:49:51;;;;;;;;;;;;;;;16.14;75.77;99081.34;5053945;28;19931;-73
2020/12/10 16:52:17;;;;;;;;;;;;;;;16.18;75.73;99089.97;5046272;28;20370;-75
2020/12/10 16:54:43;;;;;;;;;;;;;;;16.11;76.24;99099.41;5051779;28;19925;-76
2020/12/10 16:57:10;;;;;;;;;;;;;;;16.00;76.35;99085.94;5071855;28;20113;-74
2020/12/10 16:59:36;;;;;;;;;;;;;;;16.02;75.19;99073.34;5049654;28;19964;-77
2020/12/10 17:02:02;;;;;;;;;;;;;;;15.79;73.64;99085.66;5041764;28;20553;-74
2020/12/10 17:04:29;;;;;;;;;;;;;;;15.79;73.85;99077.63;5044817;28;20006;-77
2020/12/10 17:06:56;;;;;;;;;;;;;;;15.86;74.70;99088.75;5027386;28;20032;-74
2020/12/10 17:09:22;;;;;;;;;;;;;;;15.83;76.21;99100.50;5029491;28;20017;-76
2020/12/10 17:11:48;;;;;;;;;;;;;;;15.87;75.52;99093.09;5037217;28;20083;-75
2020/12/10 17:14:14;;;;;;;;;;;;;;;15.74;73.18;99099.31;5030654;28;20045;-76
2020/12/10 17:16:46;;;;;;;;;;;;;;;15.56;74.07;99078.34;5050609;28;20015;-75
2020/12/10 17:19:12;;;;;;;;;;;;;;;15.66;73.59;99103.50;5048596;28;20569;-74
2020/12/10 17:21:38;;;;;;;;;;;;;;;15.68;73.17;99107.75;5047291;28;19967;-73
2020/12/10 17:24:05;;;;;;;;;;;;;;;15.71;73.11;99112.03;5039923;28;19990;-75
2020/12/10 17:26:32;;;;;;;;;;;;;;;15.90;73.01;99117.81;5054580;28;20418;-75
2020/12/10 17:28:59;;;;;;;;;;;;;;;15.83;71.38;99118.34;5053941;28;19925;-75
2020/12/10 17:31:25;;;;;;;;;;;;;;;15.84;71.70;99118.25;5037374;28;20356;-75
2020/12/10 17:33:52;;;;;;;;;;;;;;;15.85;71.81;99117.28;5035999;28;20412;-77
2020/12/10 17:36:21;;;;;;;;;;;;;;;15.85;72.15;99127.97;5044107;28;19925;-78
2020/12/10 17:38:47;;;;;;;;;;;;;;;15.79;72.71;99127.53;5021579;28;20010;-78
2020/12/10 17:41:15;;;;;;;;;;;;;;;15.84;71.75;99136.94;5044546;28;19925;-79
2020/12/10 17:43:42;;;;;;;;;;;;;;;15.80;71.97;99139.94;5048568;28;19925;-79
2020/12/10 17:46:09;;;;;;;;;;;;;;;15.80;71.80;99142.63;5031847;28;19960;-79
2020/12/10 17:48:35;;;;;;;;;;;;;;;15.81;72.00;99152.31;5032719;28;20197;-75
2020/12/10 17:51:04;;;;;;;;;;;;;;;15.71;71.88;99154.78;5038702;28;19948;-77
2020/12/10 17:53:30;;;;;;;;;;;;;;;15.69;72.03;99149.53;5028186;28;19933;-79
2020/12/10 17:55:57;;;;;;;;;;;;;;;15.73;71.65;99159.06;5040384;28;19967;-79
2020/12/10 17:58:25;;;;;;;;;;;;;;;15.79;72.00;99156.94;5024625;28;20026;-79
2020/12/10 18:00:51;;;;;;;;;;;;;;;15.64;72.20;99159.69;5029849;28;19925;-79
2020/12/10 18:03:18;;;;;;;;;;;;;;;15.59;71.83;99152.94;5030499;28;19951;-79
2020/12/10 18:05:44;;;;;;;;;;;;;;;15.50;72.59;99150.84;5058649;28;19948;-79
2020/12/10 18:08:11;;;;;;;;;;;;;;;15.56;73.67;99169.16;5046321;28;19975;-78
2020/12/10 18:10:38;;;;;;;;;;;;;;;15.60;73.82;99168.88;5042251;28;19951;-80
2020/12/10 18:13:04;;;;;;;;;;;;;;;15.65;73.31;99168.56;5049386;28;20447;-80
2020/12/10 18:15:32;;;;;;;;;;;;;;;15.55;72.82;99170.16;5043606;28;19933;-80
2020/12/10 18:17:58;;;;;;;;;;;;;;;15.38;72.97;99167.69;5035940;28;19964;-80
2020/12/10 18:20:25;;;;;;;;;;;;;;;15.36;72.58;99164.28;5048550;28;19929;-80
2020/12/10 18:22:51;;;;;;;;;;;;;;;15.29;71.95;99154.03;5052479;28;20332;-79
2020/12/10 18:25:17;;;;;;;;;;;;;;;15.43;73.24;99158.41;5026867;28;19925;-79
2020/12/10 18:27:43;;;;;;;;;;;;;;;15.24;72.88;99156.13;5031215;28;20380;-79
2020/12/10 18:30:10;;;;;;;;;;;;;;;15.15;72.91;99148.75;5030973;28;19948;-79
2020/12/10 18:32:37;;;;;;;;;;;;;;;15.26;74.26;99158.69;5034430;28;19924;-77
2020/12/10 18:35:04;;;;;;;;;;;;;;;15.41;73.58;99163.03;5050949;28;19925;-78
2020/12/10 18:37:30;;;;;;;;;;;;;;;15.38;73.05;99155.22;5049462;28;19978;-78
2020/12/10 18:39:56;;;;;;;;;;;;;;;15.44;73.30;99151.25;5042712;28;19963;-80
2020/12/10 18:42:23;;;;;;;;;;;;;;;15.38;73.02;99163.22;5047771;28;19925;-78
2020/12/10 18:44:50;;;;;;;;;;;;;;;15.43;72.55;99157.59;5050650;28;19979;-79
2020/12/10 18:47:18;;;;;;;;;;;;;;;15.35;72.81;99160.78;5043288;28;19925;-78
2020/12/10 18:49:45;;;;;;;;;;;;;;;15.24;73.62;99148.13;5051374;28;19924;-79
2020/12/10 18:52:12;;;;;;;;;;;;;;;15.32;72.26;99164.47;5048029;28;19925;-78
2020/12/10 18:54:38;;;;;;;;;;;;;;;15.18;71.96;99163.69;5041816;28;20646;-78
2020/12/10 18:57:05;;;;;;;;;;;;;;;15.26;72.69;99167.56;5049210;28;19964;-78
2020/12/10 18:59:32;;;;;;;;;;;;;;;15.29;72.64;99174.53;5048432;28;20675;-78
2020/12/10 19:01:59;;;;;;;;;;;;;;;15.24;73.06;99179.31;5051151;28;20332;-78
2020/12/10 19:04:25;;;;;;;;;;;;;;;15.21;73.36;99180.38;5037762;28;19925;-79
2020/12/10 19:06:52;;;;;;;;;;;;;;;15.22;73.70;99186.56;5047055;28;20060;-79
2020/12/10 19:09:19;;;;;;;;;;;;;;;15.24;73.23;99196.16;5036019;28;19925;-79
2020/12/10 19:11:45;;;;;;;;;;;;;;;15.30;72.86;99195.75;5042763;28;19978;-79
2020/12/10 19:14:11;;;;;;;;;;;;;;;15.26;72.90;99190.72;5049474;28;19987;-79
2020/12/10 19:16:39;;;;;;;;;;;;;;;15.30;73.28;99197.59;5051140;28;20134;-80
2020/12/10 19:19:05;;;;;;;;;;;;;;;15.25;73.66;99194.34;5048353;28;19929;-78
2020/12/10 19:21:32;;;;;;;;;;;;;;;15.23;74.13;99213.16;5024178;28;20384;-79
2020/12/10 19:23:59;;;;;;;;;;;;;;;15.26;73.57;99210.28;5031613;28;19982;-78
2020/12/10 19:26:26;;;;;;;;;;;;;;;15.16;72.81;99205.66;5031455;28;19929;-78
2020/12/10 19:28:52;;;;;;;;;;;;;;;15.16;73.00;99205.66;5050901;28;19925;-79
2020/12/10 19:31:19;;;;;;;;;;;;;;;15.19;73.39;99208.09;5048951;28;19924;-79
2020/12/10 19:33:45;;;;;;;;;;;;;;;15.25;73.36;99199.69;5052021;28;19929;-79
2020/12/10 19:36:11;;;;;;;;;;;;;;;15.21;73.15;99200.84;5039292;28;20009;-78
2020/12/10 19:38:38;;;;;;;;;;;;;;;15.16;71.73;99202.97;5048880;28;20332;-78
2020/12/10 19:41:05;;;;;;;;;;;;;;;15.14;71.53;99199.53;5040352;28;19971;-79
2020/12/10 19:43:34;;;;;;;;;;;;;;;15.18;71.46;99199.22;5049828;28;19968;-78
2020/12/10 19:46:01;;;;;;;;;;;;;;;15.18;71.14;99196.56;5075329;28;19974;-79
2020/12/10 19:48:28;;;;;;;;;;;;;;;15.19;71.46;99208.97;5078799;28;19925;-79
2020/12/10 19:50:54;;;;;;;;;;;;;;;15.24;70.94;99209.50;5060437;28;19925;-78
2020/12/10 19:53:20;;;;;;;;;;;;;;;15.21;70.04;99214.22;5052246;28;20430;-79
2020/12/10 19:55:47;;;;;;;;;;;;;;;15.20;70.08;99215.16;5052442;28;19925;-78
2020/12/10 19:58:14;;;;;;;;;;;;;;;15.14;69.50;99220.91;5039979;28;19932;-78
2020/12/10 20:00:40;;;;;;;;;;;;;;;15.09;69.77;99223.88;5050528;28;19952;-79
2020/12/10 20:03:07;;;;;;;;;;;;;;;15.14;70.17;99242.25;5050158;28;19924;-79
2020/12/10 20:05:35;;;;;;;;;;;;;;;15.11;69.89;99242.47;5042951;28;19939;-80
2020/12/10 20:08:02;;;;;;;;;;;;;;;15.22;69.94;99254.16;5051874;28;19925;-80
2020/12/10 20:10:28;;;;;;;;;;;;;;;15.20;69.47;99260.53;5049796;28;20281;-79
2020/12/10 20:12:56;;;;;;;;;;;;;;;15.13;70.31;99254.72;5041871;28;19925;-79
2020/12/10 20:15:23;;;;;;;;;;;;;;;15.11;70.54;99256.66;5030175;28;19925;-79
2020/12/10 20:17:50;;;;;;;;;;;;;;;15.27;70.74;99245.84;5031155;28;19925;-79
2020/12/10 20:20:16;;;;;;;;;;;;;;;15.16;70.17;99251.88;5024414;28;19929;-78
2020/12/10 20:22:43;;;;;;;;;;;;;;;15.16;70.15;99259.88;5047373;28;19968;-79
2020/12/10 20:25:13;;;;;;;;;;;;;;;15.17;69.99;99256.28;5048523;28;19924;-79
2020/12/10 20:27:39;;;;;;;;;;;;;;;15.10;71.18;99264.75;5039611;28;19933;-79
2020/12/10 20:30:06;;;;;;;;;;;;;;;15.09;71.51;99263.91;5029024;28;19956;-77
2020/12/10 20:32:34;;;;;;;;;;;;;;;15.11;71.05;99264.66;5026051;28;19979;-78
2020/12/10 20:35:00;;;;;;;;;;;;;;;15.16;71.69;99275.91;5028023;28;19925;-78
2020/12/10 20:37:26;;;;;;;;;;;;;;;15.17;72.15;99272.28;5027737;28;19952;-79
2020/12/10 20:39:53;;;;;;;;;;;;;;;15.16;71.63;99267.91;5049427;28;20423;-78
2020/12/10 20:42:19;;;;;;;;;;;;;;;15.16;71.77;99265.22;5031169;28;19925;-78
2020/12/10 20:44:45;;;;;;;;;;;;;;;15.11;71.09;99264.66;5027151;28;20446;-80
2020/12/10 20:47:12;;;;;;;;;;;;;;;14.97;70.69;99275.38;5029794;28;19925;-80
2020/12/10 20:49:39;;;;;;;;;;;;;;;15.05;71.82;99269.53;5027750;28;20438;-80
2020/12/10 20:52:06;;;;;;;;;;;;;;;15.14;70.28;99272.47;5026934;28;19929;-77
2020/12/10 20:54:32;;;;;;;;;;;;;;;15.11;70.29;99277.16;5042909;28;19925;-80
2020/12/10 20:56:59;;;;;;;;;;;;;;;15.20;70.08;99274.75;5048343;28;19947;-80
2020/12/10 20:59:25;;;;;;;;;;;;;;;15.22;69.89;99275.50;5036810;28;20011;-80
2020/12/10 21:01:51;;;;;;;;;;;;;;;15.23;69.38;99277.22;5032310;28;20364;-79
2020/12/10 21:04:17;;;;;;;;;;;;;;;15.16;68.46;99294.59;5025426;28;19979;-80
2020/12/10 21:06:45;;;;;;;;;;;;;;;15.14;68.33;99295.63;5028944;28;19925;-79
2020/12/10 21:09:12;;;;;;;;;;;;;;;15.10;68.11;99297.66;5040043;28;19964;-79
2020/12/10 21:11:38;;;;;;;;;;;;;;;15.18;68.08;99300.66;5050574;28;19925;-79
2020/12/10 21:14:05;;;;;;;;;;;;;;;15.27;68.00;99297.41;5051022;28;19960;-79
2020/12/10 21:16:31;;;;;;;;;;;;;;;15.12;67.73;99297.53;5038950;28;19924;-79
2020/12/10 21:18:58;;;;;;;;;;;;;;;15.06;68.10;99290.75;5052868;28;19974;-80
2020/12/10 21:21:24;;;;;;;;;;;;;;;15.12;68.02;99302.88;5048877;28;19972;-80
2020/12/10 21:23:52;;;;;;;;;;;;;;;15.21;67.50;99308.47;5040360;28;19925;-78
2020/12/10 21:26:18;;;;;;;;;;;;;;;15.15;67.52;99313.34;5030554;28;19983;-79
2020/12/10 21:28:45;;;;;;;;;;;;;;;15.28;67.08;99307.16;5033359;28;20305;-79
2020/12/10 21:31:12;;;;;;;;;;;;;;;15.13;66.84;99304.56;5027103;28;19971;-79
2020/12/10 21:33:42;;;;;;;;;;;;;;;15.13;67.95;99308.09;5030512;28;19924;-79
2020/12/10 21:36:08;;;;;;;;;;;;;;;15.16;67.85;99309.75;5028710;28;20392;-79
2020/12/10 21:38:34;;;;;;;;;;;;;;;15.07;68.08;99315.66;5028747;28;19925;-80
2020/12/10 21:41:01;;;;;;;;;;;;;;;15.17;68.05;99316.78;5025169;28;20382;-79
2020/12/10 21:43:27;;;;;;;;;;;;;;;15.31;68.15;99317.59;5026991;28;19958;-79
2020/12/10 21:45:54;;;;;;;;;;;;;;;15.32;68.57;99318.47;5025074;28;20033;-79
2020/12/10 21:48:20;;;;;;;;;;;;;;;15.28;68.78;99336.50;5027131;28;19979;-78
2020/12/10 21:50:46;;;;;;;;;;;;;;;15.22;68.96;99333.38;5030647;28;20286;-79
2020/12/10 21:53:13;;;;;;;;;;;;;;;15.22;69.16;99328.88;5037152;28;20381;-79
2020/12/10 21:55:39;;;;;;;;;;;;;;;15.22;69.27;99317.34;5038691;28;19977;-79
2020/12/10 21:58:08;;;;;;;;;;;;;;;15.16;69.44;99323.09;5048460;28;19929;-79
2020/12/10 22:00:34;;;;;;;;;;;;;;;15.07;70.28;99324.50;5037799;28;19998;-79
2020/12/10 22:03:00;;;;;;;;;;;;;;;14.89;70.17;99310.53;5045880;28;20383;-80
2020/12/10 22:05:27;;;;;;;;;;;;;;;15.06;71.11;99321.94;5039451;28;20015;-78
2020/12/10 22:07:53;;;;;;;;;;;;;;;15.16;70.87;99326.63;5050878;28;19924;-79
2020/12/10 22:10:19;;;;;;;;;;;;;;;15.00;71.73;99328.50;5040338;28;20377;-80
2020/12/10 22:12:50;;;;;;;;;;;;;;;15.06;71.86;99328.13;5050515;28;20352;-80
2020/12/10 22:15:18;;;;;;;;;;;;;;;15.21;70.60;99337.84;5041985;28;20039;-79
2020/12/10 22:17:44;;;;;;;;;;;;;;;15.19;70.16;99336.22;5048670;28;19925;-79
2020/12/10 22:20:10;;;;;;;;;;;;;;;15.27;70.55;99320.59;5048938;28;19978;-78
2020/12/10 22:22:36;;;;;;;;;;;;;;;15.25;70.13;99330.47;5048125;28;20611;-80
2020/12/10 22:25:03;;;;;;;;;;;;;;;15.16;69.86;99329.28;5049719;28;19924;-80
2020/12/10 22:27:29;;;;;;;;;;;;;;;15.12;69.83;99324.22;5022483;28;19925;-79
2020/12/10 22:29:56;;;;;;;;;;;;;;;15.15;69.85;99321.38;5029773;28;19968;-79
2020/12/10 22:32:23;;;;;;;;;;;;;;;15.24;69.76;99320.78;5028962;28;19952;-80
2020/12/10 22:34:50;;;;;;;;;;;;;;;15.18;69.04;99316.66;5049613;28;19925;-79
2020/12/10 22:37:16;;;;;;;;;;;;;;;15.26;69.30;99321.53;5046979;28;20293;-79
2020/12/10 22:39:42;;;;;;;;;;;;;;;15.22;69.21;99334.22;5049557;28;19974;-78
2020/12/10 22:42:09;;;;;;;;;;;;;;;15.26;69.75;99326.88;5032937;28;20342;-78
2020/12/10 22:44:35;;;;;;;;;;;;;;;15.18;69.38;99332.69;5028090;28;19948;-78
2020/12/10 22:47:01;;;;;;;;;;;;;;;15.03;68.80;99333.69;5032540;28;19937;-80
2020/12/10 22:49:29;;;;;;;;;;;;;;;15.17;68.75;99335.47;5048221;28;19974;-78
2020/12/10 22:51:59;;;;;;;;;;;;;;;15.19;69.46;99329.06;5051481;28;19990;-78
2020/12/10 22:54:25;;;;;;;;;;;;;;;15.20;69.74;99329.94;5047184;28;19931;-78
2020/12/10 22:56:51;;;;;;;;;;;;;;;15.19;69.79;99329.06;5049429;28;19924;-78
2020/12/10 22:59:18;;;;;;;;;;;;;;;15.19;69.91;99318.38;5037674;28;20357;-78
2020/12/10 23:01:48;;;;;;;;;;;;;;;15.26;70.12;99318.84;5041244;28;19964;-78
2020/12/10 23:04:15;;;;;;;;;;;;;;;15.11;69.77;99310.03;5047136;28;19925;-78
2020/12/10 23:06:42;;;;;;;;;;;;;;;15.28;70.17;99312.47;5048513;28;19925;-79
2020/12/10 23:09:10;;;;;;;;;;;;;;;15.25;69.65;99322.47;5047720;28;19990;-79
2020/12/10 23:11:37;;;;;;;;;;;;;;;15.25;70.10;99317.13;5046819;28;19932;-78
2020/12/10 23:14:03;;;;;;;;;;;;;;;15.30;69.87;99325.75;5038164;28;20376;-80
2020/12/10 23:16:29;;;;;;;;;;;;;;;15.19;69.95;99317.53;5043133;28;20443;-79
2020/12/10 23:18:56;;;;;;;;;;;;;;;15.09;70.61;99327.94;5039292;28;20396;-78
2020/12/10 23:21:24;;;;;;;;;;;;;;;15.15;71.39;99324.91;5044285;28;19937;-80
2020/12/10 23:23:51;;;;;;;;;;;;;;;15.17;71.50;99322.13;5047930;28;19924;-80
2020/12/10 23:26:18;;;;;;;;;;;;;;;15.19;71.26;99314.88;5045596;28;19932;-80
2020/12/10 23:28:45;;;;;;;;;;;;;;;15.25;71.24;99317.13;5034717;28;19932;-78
2020/12/10 23:31:12;;;;;;;;;;;;;;;15.23;71.15;99319.94;5043931;28;19932;-78
2020/12/10 23:33:38;;;;;;;;;;;;;;;15.23;71.35;99317.25;5038661;28;19924;-78
2020/12/10 23:36:05;;;;;;;;;;;;;;;14.99;70.82;99300.13;5047938;28;19971;-78
2020/12/10 23:38:31;;;;;;;;;;;;;;;15.30;71.60;99317.72;5046510;28;19987;-78
2020/12/10 23:40:59;;;;;;;;;;;;;;;15.24;70.53;99324.28;5049795;28;19925;-78
2020/12/10 23:43:25;;;;;;;;;;;;;;;15.23;70.53;99333.28;5044823;28;19933;-78
2020/12/10 23:45:52;;;;;;;;;;;;;;;15.22;70.64;99328.88;5039585;28;20372;-78
2020/12/10 23:48:18;;;;;;;;;;;;;;;15.00;72.86;99328.50;5038688;28;19932;-80
2020/12/10 23:50:45;;;;;;;;;;;;;;;15.11;73.10;99331.38;5047996;28;19925;-78
2020/12/10 23:53:11;;;;;;;;;;;;;;;15.03;72.87;99330.16;5044912;28;20336;-78
2020/12/10 23:55:37;;;;;;;;;;;;;;;14.88;73.15;99334.63;5046095;28;20609;-79
2020/12/10 23:58:05;;;;;;;;;;;;;;;14.87;73.90;99335.56;5047918;28;19925;-78
